• Join FlightAware (Why Join?)
  • Login
  • US Flag 
07:49PM EDT


 

Airport Tracker/Info


-or-


 

Live Flight TrackerFlight Track Log ✈ AMF1918 ✈ 08-May-2013 ✈ KPDX - KRDM

Flight Track Log - Related Links

Times and Time Zones

All times are in EDT time to prevent confusion due to time zone crossing. See the AMF1918 flight status page for this flight to view local times or setup timezone preferences in your user account.

Time Position Orientation Groundspeed Altitude Reporting Facility
EDT Latitude Longitude Course Direction KTS MPH feet Rate Location/Type
09:11AM 45.5831 -122.6178 184° South 110 127 600  Level Seattle Center
09:12AM 45.5531 -122.6208 184° South 124 143 2,200 1,440 Climbing Seattle Center
09:13AM 45.5192 -122.6131 171° South 135 155 3,400 1,020 Climbing Seattle Center
09:14AM 45.4814 -122.5544 133° Southeast 176 203 4,600 1,020 Climbing Seattle Center
09:15AM 45.4642 -122.5217 127° Southeast 171 197 5,300 960 Climbing Seattle Center
09:15AM 45.4511 -122.5022 134° Southeast 177 204 5,600 780 Climbing Seattle Center
09:16AM 45.4333 -122.4758 134° Southeast 172 198 6,100 900 Climbing Seattle Center
09:17AM 45.3933 -122.4275 140° Southeast 183 211 7,100 840 Climbing Seattle Center
09:18AM 45.3525 -122.3847 144° Southeast 181 208 7,800 720 Climbing Seattle Center
09:19AM 45.3178 -122.3367 136° Southeast 176 203 8,600 780 Climbing Seattle Center
09:20AM 45.2761 -122.2881 141° Southeast 189 217 9,400 480 Climbing Seattle Center
09:21AM 45.2319 -122.2417 144° Southeast 195 224 9,600  Climbing Seattle Center
09:22AM 45.1861 -122.1933 143° Southeast 202 232 9,500  Descending Seattle Center
09:23AM 45.1394 -122.1497 147° Southeast 201 231 9,600  Climbing Seattle Center
09:24AM 45.0969 -122.0997 140° Southeast 199 229 9,600 -60 Level Seattle Center
09:25AM 45.0508 -122.0544 145° Southeast 201 231 9,500 -60 Descending Seattle Center
09:26AM 45.0025 -122.0108 147° Southeast 204 235 9,500  Level Seattle Center
09:27AM 44.9586 -121.9647 143° Southeast 200 230 9,600  Climbing Seattle Center
09:28AM 44.9100 -121.9128 143° Southeast 200 230 9,500  Descending Seattle Center
09:29AM 44.8644 -121.8667 144° Southeast 201 231 9,600  Climbing Seattle Center
09:30AM 44.8197 -121.8258 147° Southeast 196 226 9,600  Level Seattle Center
09:31AM 44.7717 -121.7869 150° Southeast 199 229 9,600  Level Seattle Center
09:32AM 44.7211 -121.7533 155° Southeast 201 231 9,600  Level Seattle Center
09:33AM 44.6728 -121.7153 151° Southeast 200 230 9,600 -60 Level Seattle Center
09:34AM 44.6261 -121.6703 146° Southeast 204 235 9,500 -300 Descending Seattle Center
09:35AM 44.5775 -121.6272 148° Southeast 206 237 9,100 -600 Descending Seattle Center
09:36AM 44.5258 -121.5789 146° Southeast 221 254 8,400 -780 Descending Seattle Center
09:37AM 44.4808 -121.5114 133° Southeast 228 262 7,600 -840 Descending Seattle Center
09:38AM 44.4333 -121.4533 139° Southeast 228 262 6,800 -960 Descending Seattle Center
09:39AM 44.3900 -121.3944 136° Southeast 221 254 5,700 -720 Descending Seattle Center
09:40AM 44.3506 -121.3336 132° Southeast 214 246 5,400 -300 Descending Seattle Center
09:41AM 44.3128 -121.2811 135° Southeast 202 232 5,100 -600 Descending Seattle Center
09:42AM 44.2856 -121.2206 122° Southeast 168 193 4,300 -840 Descending Seattle Center
09:43AM 44.2667 -121.1783 122° Southeast 147 169 3,500 -600 Descending Seattle Center
09:44AM 44.2539 -121.1519 124° Southeast 108 124 3,100 -240 Descending Seattle Center
09:45AM 44.2567 -121.1542 330° Northwest 49 56 3,100  Level Seattle Center